createdAt,value
2019-03-16T00:02:09.555Z,3.67
2019-03-16T00:04:40.292Z,5.63
2019-03-16T00:07:12.102Z,9.17
2019-03-16T00:09:46.229Z,5.10
2019-03-16T00:12:17.407Z,2.63
2019-03-16T00:14:48.735Z,4.77
2019-03-16T00:17:23.112Z,5.20
2019-03-16T00:19:52.257Z,4.50
2019-03-16T00:22:23.601Z,10.37
2019-03-16T00:24:54.623Z,5.27
2019-03-16T00:27:26.085Z,1.37
2019-03-16T00:29:57.379Z,4.13
2019-03-16T00:32:28.580Z,8.83
2019-03-16T00:34:59.943Z,3.57
2019-03-16T00:37:30.864Z,10.43
2019-03-16T00:40:07.123Z,6.40
2019-03-16T00:42:37.965Z,3.80
2019-03-16T00:45:10.686Z,3.80
2019-03-16T00:47:41.809Z,3.23
2019-03-16T00:50:14.104Z,9.07
2019-03-16T00:52:45.164Z,5.07
2019-03-16T00:55:16.153Z,5.70
2019-03-16T00:57:46.881Z,5.17
2019-03-16T01:00:18.508Z,5.43
2019-03-16T01:02:49.558Z,6.83
2019-03-16T01:05:20.172Z,4.23
2019-03-16T01:07:51.432Z,4.43
2019-03-16T01:10:22.328Z,12.77
2019-03-16T01:12:53.161Z,6.57
2019-03-16T01:15:24.082Z,3.23
2019-03-16T01:17:55.226Z,3.50
2019-03-16T01:20:26.077Z,7.63
2019-03-16T01:22:57.093Z,5.30
2019-03-16T01:25:28.330Z,5.00
2019-03-16T01:27:59.172Z,7.17
2019-03-16T01:30:30.547Z,7.03
2019-03-16T01:33:01.837Z,5.77
2019-03-16T01:35:33.389Z,8.00
2019-03-16T01:38:05.095Z,6.40
2019-03-16T01:40:35.877Z,9.50
2019-03-16T01:43:06.774Z,4.33
2019-03-16T01:45:37.687Z,4.43
2019-03-16T01:48:08.530Z,10.33
2019-03-16T01:50:40.287Z,7.93
2019-03-16T01:53:11.336Z,5.13
2019-03-16T01:55:42.440Z,5.47
2019-03-16T01:58:13.882Z,4.57
2019-03-16T02:00:45.041Z,4.87
2019-03-16T02:03:15.984Z,7.07
2019-03-16T02:05:46.647Z,9.50
2019-03-16T02:08:17.942Z,7.10
2019-03-16T02:10:48.497Z,7.20
2019-03-16T02:13:19.574Z,8.93
2019-03-16T02:15:51.075Z,4.97
2019-03-16T02:18:21.990Z,8.67
2019-03-16T02:20:53.415Z,6.87
2019-03-16T02:23:24.811Z,4.80
2019-03-16T02:25:55.972Z,11.40
2019-03-16T02:28:27.295Z,6.73
2019-03-16T02:30:58.007Z,7.07
2019-03-16T02:33:29.182Z,5.63
2019-03-16T02:36:00.305Z,7.00
2019-03-16T02:38:32.823Z,5.80
2019-03-16T02:41:03.548Z,4.33
2019-03-16T02:43:34.772Z,7.13
2019-03-16T02:46:05.463Z,6.73
2019-03-16T02:48:36.148Z,4.80
2019-03-16T02:51:08.629Z,8.80
2019-03-16T02:53:39.539Z,8.47
2019-03-16T02:56:10.636Z,4.20
2019-03-16T02:58:41.501Z,6.50
2019-03-16T03:01:12.516Z,6.83
2019-03-16T03:03:43.342Z,4.47
2019-03-16T03:06:14.100Z,10.33
2019-03-16T03:08:45.290Z,3.50
2019-03-16T03:11:16.032Z,12.93
2019-03-16T03:13:47.092Z,7.47
2019-03-16T03:16:18.354Z,5.17
2019-03-16T03:18:50.115Z,7.30
2019-03-16T03:21:21.249Z,10.97
2019-03-16T03:23:51.966Z,5.60
2019-03-16T03:26:22.934Z,4.00
2019-03-16T03:28:53.652Z,3.53
2019-03-16T03:31:24.347Z,7.87
2019-03-16T03:34:00.812Z,7.43
2019-03-16T03:36:27.562Z,8.33
2019-03-16T03:38:58.714Z,4.90
2019-03-16T03:41:30.707Z,5.73
2019-03-16T03:44:01.928Z,7.87
2019-03-16T03:46:32.804Z,8.33
2019-03-16T03:49:04.927Z,15.30
2019-03-16T03:51:36.222Z,5.50
2019-03-16T03:54:07.154Z,3.83
2019-03-16T03:56:38.131Z,7.40
2019-03-16T03:59:09.252Z,4.93
2019-03-16T04:01:40.638Z,4.80
2019-03-16T04:04:15.843Z,6.57
2019-03-16T04:06:44.073Z,6.03
2019-03-16T04:09:15.064Z,7.47
2019-03-16T04:11:46.264Z,11.47
2019-03-16T04:14:17.667Z,7.00
2019-03-16T04:16:48.383Z,6.97
2019-03-16T04:19:19.338Z,8.73
2019-03-16T04:21:49.926Z,15.93
2019-03-16T04:24:21.064Z,6.07
2019-03-16T04:26:51.995Z,7.87
2019-03-16T04:29:23.256Z,8.00
2019-03-16T04:31:54.260Z,10.13
2019-03-16T04:34:29.671Z,6.90
2019-03-16T04:36:57.601Z,7.53
2019-03-16T04:39:28.655Z,12.20
2019-03-16T04:41:59.950Z,5.97
2019-03-16T04:44:30.886Z,11.50
2019-03-16T04:47:01.564Z,6.57
2019-03-16T04:49:32.704Z,8.43
2019-03-16T04:52:03.655Z,8.20
2019-03-16T04:54:34.775Z,8.27
2019-03-16T04:57:05.559Z,10.30
2019-03-16T04:59:36.598Z,6.13
2019-03-16T05:02:07.456Z,6.50
2019-03-16T05:04:42.747Z,7.83
2019-03-16T05:07:10.771Z,5.93
2019-03-16T05:09:42.363Z,5.33
2019-03-16T05:12:13.335Z,6.17
2019-03-16T05:14:44.646Z,6.03
2019-03-16T05:17:15.948Z,8.47
2019-03-16T05:19:47.082Z,10.73
2019-03-16T05:22:18.226Z,7.13
2019-03-16T05:24:49.160Z,7.30
2019-03-16T05:27:20.576Z,6.63
2019-03-16T05:29:51.599Z,11.00
2019-03-16T05:32:22.484Z,6.33
2019-03-16T05:34:56.809Z,9.30
2019-03-16T05:37:26.141Z,7.80
2019-03-16T05:39:57.477Z,8.90
2019-03-16T05:42:30.304Z,5.90
2019-03-16T05:45:01.223Z,8.30
2019-03-16T05:47:32.447Z,4.70
2019-03-16T05:50:06.960Z,8.97
2019-03-16T05:52:37.926Z,10.47
2019-03-16T05:55:08.842Z,9.23
2019-03-16T05:57:39.767Z,5.57
2019-03-16T06:00:13.224Z,10.63
2019-03-16T06:02:44.264Z,8.77
2019-03-16T06:05:15.236Z,12.17
2019-03-16T06:07:47.115Z,8.80
2019-03-16T06:10:18.558Z,7.27
2019-03-16T06:12:49.585Z,10.47
2019-03-16T06:15:20.706Z,11.27
2019-03-16T06:17:51.687Z,5.77
2019-03-16T06:20:22.954Z,7.83
2019-03-16T06:22:54.096Z,8.53
2019-03-16T06:25:25.088Z,6.97
2019-03-16T06:27:56.046Z,6.17
2019-03-16T06:30:28.214Z,7.27
2019-03-16T06:32:59.339Z,5.93
2019-03-16T06:35:30.273Z,11.33
2019-03-16T06:38:01.339Z,3.50
2019-03-16T06:40:32.480Z,7.30
2019-03-16T06:43:03.541Z,4.53
2019-03-16T06:45:35.082Z,5.67
2019-03-16T06:48:06.550Z,8.40
2019-03-16T06:50:37.622Z,8.37
2019-03-16T06:53:08.959Z,7.80
2019-03-16T06:55:40.289Z,8.33
2019-03-16T06:58:11.356Z,4.37
2019-03-16T07:00:42.227Z,9.77
2019-03-16T07:03:13.389Z,7.20
2019-03-16T07:05:44.077Z,6.07
2019-03-16T07:08:15.191Z,10.13
2019-03-16T07:10:46.154Z,8.97
2019-03-16T07:13:17.721Z,5.07
2019-03-16T07:15:50.002Z,9.83
2019-03-16T07:18:20.877Z,8.33
2019-03-16T07:20:51.583Z,8.00
2019-03-16T07:23:24.132Z,5.57
2019-03-16T07:25:58.533Z,9.97
2019-03-16T07:28:29.693Z,5.87
2019-03-16T07:31:07.186Z,8.97
2019-03-16T07:33:41.250Z,8.93
2019-03-16T07:36:12.529Z,11.30
2019-03-16T07:38:44.553Z,9.10
2019-03-16T07:41:17.221Z,7.13
2019-03-16T07:43:48.450Z,9.20
2019-03-16T07:46:19.852Z,11.20
2019-03-16T07:48:50.841Z,6.07
2019-03-16T07:51:25.078Z,9.37
2019-03-16T07:53:58.260Z,7.37
2019-03-16T07:56:29.507Z,12.73
2019-03-16T07:59:00.782Z,10.00
2019-03-16T08:01:31.361Z,12.13
2019-03-16T08:04:02.583Z,10.40
2019-03-16T08:06:33.864Z,5.23
2019-03-16T08:09:06.069Z,9.73
2019-03-16T08:11:37.519Z,8.20
2019-03-16T08:14:08.737Z,8.63
2019-03-16T08:16:40.013Z,6.00
2019-03-16T08:19:12.375Z,8.63
2019-03-16T08:21:43.382Z,8.23
2019-03-16T08:24:14.083Z,8.10
2019-03-16T08:26:45.003Z,9.10
2019-03-16T08:29:17.521Z,17.17
2019-03-16T08:31:49.372Z,7.90
2019-03-16T08:34:21.130Z,7.83
2019-03-16T08:36:52.089Z,11.83
2019-03-16T08:39:23.725Z,8.33
2019-03-16T08:41:54.773Z,10.40
2019-03-16T08:44:26.878Z,11.27
2019-03-16T08:46:58.036Z,13.00
2019-03-16T08:49:29.004Z,5.80
2019-03-16T08:51:59.902Z,9.77
2019-03-16T08:54:31.059Z,5.57
2019-03-16T08:57:02.763Z,2.30
2019-03-16T08:59:33.611Z,5.67
2019-03-16T09:02:04.495Z,6.43
2019-03-16T09:04:35.778Z,5.77
2019-03-16T09:07:07.179Z,11.77
2019-03-16T09:09:38.461Z,11.93
2019-03-16T09:12:10.012Z,7.50
2019-03-16T09:14:40.911Z,14.20
2019-03-16T09:17:11.778Z,10.30
2019-03-16T09:19:42.533Z,9.07
2019-03-16T09:22:13.036Z,6.83
2019-03-16T09:24:43.721Z,9.07
2019-03-16T09:27:14.203Z,8.73
2019-03-16T09:29:44.822Z,5.87
2019-03-16T09:32:15.572Z,6.50
2019-03-16T09:34:46.252Z,9.30
2019-03-16T09:37:16.671Z,4.37
2019-03-16T09:39:47.371Z,8.30
2019-03-16T09:42:17.994Z,8.37
2019-03-16T09:44:49.548Z,7.53
2019-03-16T09:47:20.067Z,4.40
2019-03-16T09:49:50.860Z,6.20
2019-03-16T09:52:21.572Z,5.10
2019-03-16T09:54:52.467Z,12.17
2019-03-16T09:57:23.082Z,10.93
2019-03-16T09:59:53.788Z,6.83
2019-03-16T10:02:24.212Z,7.30
2019-03-16T10:04:54.883Z,7.10
2019-03-16T10:07:25.411Z,7.87
2019-03-16T10:09:55.948Z,4.42
2019-03-16T10:12:26.692Z,9.87
2019-03-16T10:14:57.199Z,9.85
2019-03-16T10:17:34.882Z,5.60
2019-03-16T10:20:16.554Z,9.60
2019-03-16T10:22:47.892Z,8.53
2019-03-16T10:25:19.562Z,5.83
2019-03-16T10:27:50.772Z,5.20
2019-03-16T10:30:22.670Z,7.87
2019-03-16T10:32:54.203Z,5.07
2019-03-16T10:35:25.261Z,8.53
2019-03-16T10:37:56.527Z,7.60
2019-03-16T10:40:27.597Z,5.17
2019-03-16T10:42:59.666Z,11.18
2019-03-16T10:45:30.449Z,5.08
2019-03-16T10:48:01.567Z,4.50
2019-03-16T10:50:32.939Z,8.20
2019-03-16T10:53:04.043Z,8.73
2019-03-16T10:55:35.228Z,10.45
2019-03-16T10:58:05.872Z,8.90
2019-03-16T11:00:37.033Z,8.43
2019-03-16T11:03:08.376Z,7.87
2019-03-16T11:05:39.625Z,5.95
2019-03-16T11:08:10.356Z,7.25
2019-03-16T11:10:41.530Z,3.05
2019-03-16T11:13:13.395Z,9.73
2019-03-16T11:15:44.733Z,7.58
2019-03-16T11:18:16.061Z,7.37
2019-03-16T11:20:47.235Z,4.72
2019-03-16T11:23:18.154Z,8.38
2019-03-16T11:25:49.367Z,8.80
2019-03-16T11:28:20.489Z,9.13
2019-03-16T11:30:52.190Z,6.35
2019-03-16T11:33:22.954Z,16.80
2019-03-16T11:35:54.402Z,10.78
2019-03-16T11:38:25.676Z,11.88
2019-03-16T11:40:56.562Z,11.43
2019-03-16T11:43:27.499Z,6.75
2019-03-16T11:45:58.588Z,6.97
2019-03-16T11:48:29.311Z,8.05
2019-03-16T11:51:00.499Z,8.53
2019-03-16T11:53:31.849Z,9.80
2019-03-16T11:56:03.475Z,6.17
2019-03-16T11:58:34.250Z,8.75
2019-03-16T12:01:05.219Z,10.43
2019-03-16T12:03:36.594Z,8.55
2019-03-16T12:09:44.239Z,7.83
2019-03-16T12:12:15.149Z,13.72
2019-03-16T12:14:48.965Z,6.25
2019-03-16T12:17:20.336Z,8.35
2019-03-16T12:19:51.215Z,10.03
2019-03-16T12:22:23.145Z,9.00
2019-03-16T12:24:54.206Z,9.40
2019-03-16T12:27:25.414Z,8.85
2019-03-16T12:29:56.600Z,5.67
2019-03-16T12:32:28.280Z,6.37
2019-03-16T12:34:59.675Z,8.28
2019-03-16T12:37:30.453Z,8.15
2019-03-16T12:40:01.500Z,13.25
2019-03-16T12:42:32.539Z,10.30
2019-03-16T12:45:03.800Z,8.90
2019-03-16T12:47:35.121Z,12.07
2019-03-16T12:50:08.573Z,8.68
2019-03-16T12:52:40.767Z,13.15
2019-03-16T12:55:13.944Z,8.55
2019-03-16T12:57:47.744Z,10.82
2019-03-16T13:00:19.501Z,6.78
2019-03-16T13:02:50.790Z,10.13
2019-03-16T13:05:22.191Z,4.42
2019-03-16T13:07:53.260Z,4.90
2019-03-16T13:10:24.432Z,5.72
2019-03-16T13:12:55.759Z,10.88
2019-03-16T13:15:26.666Z,13.88
2019-03-16T15:10:13.014Z,5.58
2019-03-16T15:12:44.700Z,6.10
2019-03-16T15:15:17.876Z,4.25
2019-03-16T15:17:49.285Z,6.35
2019-03-16T15:20:20.379Z,4.67
2019-03-16T15:22:53.665Z,8.48
2019-03-16T15:25:25.135Z,6.25
2019-03-16T15:27:56.734Z,9.08
2019-03-16T15:30:28.263Z,6.47
2019-03-16T15:33:00.506Z,8.78
2019-03-16T15:35:31.602Z,7.78
2019-03-16T15:38:02.778Z,7.95
2019-03-16T15:40:33.824Z,7.78
2019-03-16T15:43:05.421Z,7.85
2019-03-16T15:45:36.587Z,9.93
2019-03-16T15:48:07.409Z,9.83
2019-03-16T15:50:38.225Z,7.50
2019-03-16T15:53:09.536Z,5.20
2019-03-16T15:55:40.397Z,7.28
2019-03-16T15:58:11.464Z,12.43
2019-03-16T16:00:42.727Z,7.50
2019-03-16T16:03:13.806Z,8.18
2019-03-16T16:05:44.777Z,7.67
2019-03-16T16:08:15.901Z,7.33
2019-03-16T16:10:59.681Z,10.48
2019-03-16T16:13:20.006Z,8.90
2019-03-16T16:15:51.254Z,8.88
2019-03-16T16:18:22.321Z,10.63
2019-03-16T16:20:53.386Z,12.40
2019-03-16T16:23:24.451Z,21.37
2019-03-16T16:25:56.063Z,6.20
2019-03-16T16:28:28.987Z,27.03
2019-03-16T16:31:00.643Z,11.57
2019-03-16T16:33:31.505Z,13.00
2019-03-16T16:36:03.264Z,7.07
2019-03-16T16:38:36.216Z,10.53
2019-03-16T16:41:07.144Z,56.20
2019-03-16T16:43:42.234Z,68.10
2019-03-16T16:46:12.985Z,13.80
2019-03-16T16:48:44.988Z,6.53
2019-03-16T16:51:16.408Z,12.97
2019-03-16T16:53:47.568Z,9.17
2019-03-16T16:56:18.621Z,9.50
2019-03-16T16:58:50.008Z,20.03
2019-03-16T17:01:29.325Z,5.23
2019-03-16T17:03:55.649Z,6.60
2019-03-16T17:06:28.047Z,11.07
2019-03-16T17:08:59.289Z,8.33
2019-03-16T17:11:32.011Z,26.67
2019-03-16T17:14:03.409Z,6.97
2019-03-16T17:16:34.213Z,6.50
2019-03-16T17:19:08.033Z,9.40
2019-03-16T17:21:42.769Z,8.00
2019-03-16T17:24:15.211Z,4.70
2019-03-16T17:26:49.564Z,9.20
2019-03-16T17:29:21.728Z,6.67
2019-03-16T17:31:57.874Z,12.40
2019-03-16T17:34:31.941Z,21.97
2019-03-16T17:37:08.617Z,13.03
2019-03-16T17:39:50.489Z,13.95
2019-03-16T17:42:23.763Z,14.43
2019-03-16T17:44:55.332Z,16.13
2019-03-16T17:47:30.727Z,12.37
2019-03-16T17:50:11.505Z,15.30
2019-03-16T17:52:44.602Z,23.87
2019-03-16T17:55:20.179Z,12.33
2019-03-16T17:58:01.288Z,16.80
2019-03-16T18:04:20.801Z,12.87
2019-03-16T18:07:12.136Z,20.77
2019-03-16T18:09:55.079Z,19.27
2019-03-16T18:26:35.218Z,32.43
2019-03-16T18:29:11.694Z,48.50
2019-03-16T18:32:15.749Z,55.50
2019-03-16T18:35:29.672Z,41.13
2019-03-16T18:42:15.525Z,85.47
2019-03-16T19:01:45.036Z,92.27
2019-03-16T19:04:15.891Z,117.63
2019-03-16T19:06:46.649Z,122.03
2019-03-16T19:09:18.278Z,141.53
2019-03-16T19:11:49.522Z,122.73
2019-03-16T19:14:20.893Z,125.93
2019-03-16T19:16:52.589Z,139.43
2019-03-16T19:19:24.068Z,126.17
2019-03-16T19:21:55.093Z,130.10
2019-03-16T19:24:25.998Z,118.17
2019-03-16T19:26:57.054Z,108.20
2019-03-16T19:29:29.729Z,88.60
2019-03-16T19:32:00.792Z,83.47
2019-03-16T19:34:32.059Z,64.93
2019-03-16T19:37:04.495Z,46.40
2019-03-16T19:39:35.249Z,42.37
2019-03-16T19:42:07.182Z,48.97
2019-03-16T19:44:38.539Z,75.20
2019-03-16T19:47:09.858Z,65.53
2019-03-16T19:49:41.879Z,63.20
2019-03-16T19:52:13.759Z,68.60
2019-03-16T19:54:45.234Z,66.63
2019-03-16T19:57:19.946Z,61.17
2019-03-16T19:59:51.932Z,61.40
2019-03-16T20:02:23.979Z,70.10
2019-03-16T22:11:14.388Z,18.27
2019-03-16T22:13:46.321Z,18.07
2019-03-16T22:16:18.404Z,19.00
2019-03-16T22:18:50.013Z,145.33
2019-03-16T22:21:23.499Z,61.37
2019-03-16T22:23:55.226Z,41.07
2019-03-16T22:26:26.131Z,24.33
2019-03-16T22:28:57.769Z,20.17
2019-03-16T22:31:29.239Z,22.03
2019-03-16T22:34:00.881Z,23.53
2019-03-16T22:36:32.122Z,25.33
2019-03-16T22:39:04.001Z,24.10
2019-03-16T22:41:34.979Z,19.57
2019-03-16T22:44:06.360Z,22.00
2019-03-16T22:46:38.308Z,23.57
2019-03-16T22:49:11.221Z,18.33
2019-03-16T22:51:43.180Z,19.73
2019-03-16T22:54:14.042Z,19.30
2019-03-16T22:56:45.521Z,16.33
2019-03-16T22:59:16.884Z,17.30
2019-03-16T23:01:49.622Z,21.53
2019-03-16T23:04:22.126Z,17.90
2019-03-16T23:06:55.202Z,22.03
2019-03-16T23:09:26.839Z,15.80
2019-03-16T23:11:59.549Z,17.33
2019-03-16T23:14:38.520Z,20.23
2019-03-16T23:17:12.080Z,17.10
2019-03-16T23:19:44.300Z,25.20
2019-03-16T23:22:17.189Z,14.47
2019-03-16T23:24:54.641Z,14.87
2019-03-16T23:27:26.465Z,15.33
2019-03-16T23:29:57.663Z,16.10
2019-03-16T23:32:30.953Z,16.10
2019-03-16T23:35:02.821Z,19.67
2019-03-16T23:37:33.899Z,15.27
2019-03-16T23:40:07.800Z,17.20
2019-03-16T23:42:39.249Z,14.17
2019-03-16T23:45:22.793Z,16.00
2019-03-16T23:47:58.880Z,12.07
2019-03-16T23:50:33.337Z,13.70
2019-03-16T23:53:05.176Z,14.43
2019-03-16T23:55:37.913Z,13.57
2019-03-16T23:58:11.662Z,13.58
